Time;durP1;ratioP1;P1;durP2;ratioP2;P2;SDS_P1;SDS_P2;PMS_P1;PMS_P2;Temp;Humidity;BMP_temperature;BMP_pressure;BME280_temperature;BME280_humidity;BME280_pressure;Samples;Min_cycle;Max_cycle;Signal;HPM_P1;HPM_P2
2021/12/04 00:00:42;;;;;;;10.57;6.67;;;22.30;99.90;;;;;;4999859;28;20796;-90
2021/12/04 00:03:09;;;;;;;8.35;6.43;;;22.30;99.90;;;;;;5007415;28;20729;-88
2021/12/04 00:05:39;;;;;;;8.77;6.85;;;22.50;99.90;;;;;;4989055;28;20402;-86
2021/12/04 00:08:06;;;;;;;9.60;6.82;;;22.60;99.90;;;;;;5007411;28;20437;-87
2021/12/04 00:10:33;;;;;;;10.65;6.50;;;22.70;99.90;;;;;;5006733;28;20883;-89
2021/12/04 00:13:01;;;;;;;8.15;6.07;;;22.70;99.90;;;;;;5015648;28;20397;-90
2021/12/04 00:15:27;;;;;;;7.75;6.35;;;22.80;99.90;;;;;;5023767;28;20393;-88
2021/12/04 00:17:57;;;;;;;7.03;5.47;;;22.80;99.90;;;;;;5006730;28;20403;-87
2021/12/04 00:20:27;;;;;;;7.35;5.72;;;22.80;99.90;;;;;;5007374;28;20391;-88
2021/12/04 00:22:56;;;;;;;6.88;3.70;;;22.90;99.90;;;;;;5006844;28;20395;-88
2021/12/04 00:25:23;;;;;;;7.93;3.20;;;22.90;99.90;;;;;;4989057;28;21277;-88
2021/12/04 00:27:50;;;;;;;14.35;6.65;;;22.80;99.90;;;;;;5008320;28;20421;-87
2021/12/04 00:30:17;;;;;;;8.30;3.45;;;22.80;99.90;;;;;;5010541;28;20437;-88
2021/12/04 00:32:52;;;;;;;8.75;3.78;;;22.80;99.90;;;;;;5006225;28;20395;-89
2021/12/04 00:35:32;;;;;;;5.57;2.30;;;22.90;99.90;;;;;;5007020;28;20378;-89
2021/12/04 00:49:08;;;;;;;4.38;2.90;;;23.50;99.90;;;;;;5007168;28;20511;-87
2021/12/04 00:51:37;;;;;;;8.15;3.25;;;23.50;99.90;;;;;;5006070;28;20394;-87
2021/12/04 00:54:10;;;;;;;10.57;6.45;;;23.60;99.90;;;;;;5006501;28;20393;-89
2021/12/04 00:56:38;;;;;;;8.15;5.03;;;23.70;99.90;;;;;;4990021;28;20410;-88
2021/12/04 00:59:05;;;;;;;9.70;5.95;;;24.00;99.90;;;;;;5006900;28;20430;-87
2021/12/04 01:01:33;;;;;;;6.20;3.90;;;24.30;99.90;;;;;;5006445;28;20425;-88
2021/12/04 01:04:00;;;;;;;6.60;4.20;;;24.20;99.90;;;;;;5006051;28;20898;-89
2021/12/04 01:06:27;;;;;;;6.25;4.40;;;24.30;99.90;;;;;;5006171;28;20418;-88
2021/12/04 01:08:54;;;;;;;20.70;5.22;;;24.30;99.80;;;;;;5005866;28;20379;-87
2021/12/04 01:11:21;;;;;;;7.15;4.30;;;24.20;99.50;;;;;;5006111;28;20471;-88
2021/12/04 01:13:48;;;;;;;8.55;4.57;;;24.00;99.50;;;;;;5019278;28;20380;-87
2021/12/04 01:16:15;;;;;;;6.65;4.10;;;23.80;99.90;;;;;;4994390;28;20477;-88
2021/12/04 01:18:43;;;;;;;6.20;3.67;;;23.60;99.90;;;;;;5015815;28;20957;-87
2021/12/04 01:21:11;;;;;;;5.07;3.33;;;23.60;99.90;;;;;;5017664;28;20429;-88
2021/12/04 01:23:38;;;;;;;6.38;3.22;;;23.50;99.90;;;;;;5017601;28;20382;-88
2021/12/04 01:26:05;;;;;;;4.70;2.88;;;23.50;99.90;;;;;;5012705;28;20890;-88
2021/12/04 01:28:33;;;;;;;4.63;2.80;;;23.30;99.90;;;;;;4995830;28;20404;-89
2021/12/04 01:31:00;;;;;;;5.70;2.50;;;23.20;99.90;;;;;;4987087;28;20431;-89
2021/12/04 01:33:27;;;;;;;5.70;2.72;;;23.00;99.90;;;;;;4986861;28;20399;-88
2021/12/04 01:35:54;;;;;;;5.35;2.30;;;22.90;99.90;;;;;;4969231;28;20897;-90
2021/12/04 01:38:22;;;;;;;4.63;2.30;;;22.90;99.90;;;;;;4990095;28;20406;-88
2021/12/04 01:40:49;;;;;;;4.67;2.17;;;22.90;99.90;;;;;;4972837;28;20861;-88
2021/12/04 01:43:16;;;;;;;6.43;2.43;;;22.80;99.90;;;;;;4990397;28;20389;-89
2021/12/04 01:45:43;;;;;;;5.50;2.80;;;22.80;99.90;;;;;;4973249;28;20384;-88
2021/12/04 01:48:10;;;;;;;5.30;2.55;;;22.70;99.90;;;;;;4990848;28;20463;-89
2021/12/04 01:50:37;;;;;;;6.32;2.83;;;22.80;99.90;;;;;;5011215;28;20381;-90
2021/12/04 01:53:05;;;;;;;8.02;2.90;;;22.80;99.90;;;;;;5018678;28;20399;-89
2021/12/04 01:55:35;;;;;;;7.53;2.90;;;22.90;99.90;;;;;;5034053;28;20755;-90
2021/12/04 01:58:02;;;;;;;8.02;2.90;;;23.00;99.90;;;;;;5029906;28;20369;-89
2021/12/04 02:00:36;;;;;;;9.63;2.90;;;23.00;99.90;;;;;;5023259;28;20402;-88
2021/12/04 02:03:04;;;;;;;7.97;3.10;;;22.90;99.90;;;;;;5003202;28;20403;-88
2021/12/04 02:05:31;;;;;;;10.82;3.20;;;23.00;99.90;;;;;;5021161;28;20381;-87
2021/12/04 02:08:02;;;;;;;9.27;2.90;;;23.00;99.90;;;;;;5019588;28;20417;-87
2021/12/04 02:10:29;;;;;;;7.75;2.70;;;23.00;99.90;;;;;;5008852;28;20387;-88
2021/12/04 02:12:56;;;;;;;8.38;2.80;;;23.00;99.90;;;;;;5009090;28;21105;-88
2021/12/04 02:15:22;;;;;;;7.55;2.92;;;23.00;99.90;;;;;;5013883;28;20447;-86
2021/12/04 02:17:50;;;;;;;8.17;2.80;;;23.20;99.90;;;;;;5008683;28;20391;-85
2021/12/04 02:20:19;;;;;;;7.63;2.85;;;23.30;99.90;;;;;;5009055;28;20755;-86
2021/12/04 02:22:47;;;;;;;8.70;3.10;;;23.50;99.90;;;;;;5008661;28;20438;-86
2021/12/04 02:25:14;;;;;;;9.98;3.10;;;23.60;99.90;;;;;;5009069;28;20386;-87
2021/12/04 02:27:42;;;;;;;8.63;2.90;;;23.80;99.40;;;;;;5008466;28;20419;-86
2021/12/04 02:30:13;;;;;;;8.43;2.80;;;24.10;98.60;;;;;;4994717;28;20387;-86
2021/12/04 02:32:40;;;;;;;9.13;2.90;;;24.60;98.80;;;;;;5008419;28;20430;-85
2021/12/04 02:35:09;;;;;;;8.73;2.72;;;25.20;96.60;;;;;;5008381;28;20945;-86
2021/12/04 02:37:37;;;;;;;7.22;2.50;;;25.50;95.30;;;;;;5007655;28;20813;-86
2021/12/04 02:40:11;;;;;;;6.85;2.40;;;25.40;94.90;;;;;;5009143;28;20478;-86
2021/12/04 02:42:39;;;;;;;6.85;2.90;;;25.40;93.50;;;;;;5010556;28;20391;-86
2021/12/04 02:45:09;;;;;;;7.10;2.78;;;25.60;92.50;;;;;;4990453;28;20958;-88
2021/12/04 02:47:36;;;;;;;7.05;2.83;;;25.80;91.30;;;;;;5022606;28;20413;-86
2021/12/04 02:50:07;;;;;;;8.80;2.97;;;26.00;91.10;;;;;;5027827;28;20873;-87
2021/12/04 02:52:35;;;;;;;6.65;2.90;;;26.70;91.20;;;;;;5015064;28;20771;-86
2021/12/04 02:55:03;;;;;;;7.63;2.85;;;28.00;84.30;;;;;;5008654;28;20373;-86
2021/12/04 02:57:31;;;;;;;9.18;2.92;;;29.00;81.40;;;;;;5009160;28;20489;-86
2021/12/04 02:59:58;;;;;;;8.50;2.80;;;29.40;75.80;;;;;;5008396;28;20513;-86
2021/12/04 03:02:25;;;;;;;8.13;2.83;;;30.00;71.20;;;;;;5019173;28;20418;-87
2021/12/04 03:04:59;;;;;;;8.23;2.70;;;30.80;65.10;;;;;;5018504;28;20755;-87
2021/12/04 03:07:26;;;;;;;8.20;2.80;;;30.90;62.30;;;;;;5018240;28;20405;-87
2021/12/04 03:09:54;;;;;;;6.05;2.28;;;30.50;62.40;;;;;;5020181;28;20406;-88
2021/12/04 03:12:25;;;;;;;6.57;2.72;;;29.60;64.90;;;;;;5016933;28;20390;-87
2021/12/04 03:14:53;;;;;;;6.38;2.80;;;28.50;68.50;;;;;;5013229;28;20381;-87
2021/12/04 03:17:22;;;;;;;11.40;3.10;;;27.70;73.00;;;;;;4999730;28;20397;-87
2021/12/04 03:19:51;;;;;;;7.22;2.70;;;26.90;76.20;;;;;;5010034;28;20389;-88
2021/12/04 03:22:20;;;;;;;11.15;3.05;;;26.30;78.60;;;;;;5019932;28;20736;-86
2021/12/04 03:24:47;;;;;;;6.60;2.30;;;25.70;82.50;;;;;;5007911;28;20382;-86
2021/12/04 03:27:16;;;;;;;6.75;2.50;;;25.40;86.90;;;;;;5013751;28;20705;-87
2021/12/04 03:29:48;;;;;;;7.90;2.33;;;25.50;85.70;;;;;;5027785;28;20432;-88
2021/12/04 03:43:17;;;;;;;6.70;2.17;;;26.50;78.60;;;;;;5014939;28;21044;-86
2021/12/04 03:45:47;;;;;;;5.25;2.00;;;26.50;77.40;;;;;;5020541;28;20381;-84
2021/12/04 03:48:59;;;;;;;5.85;2.15;;;26.20;77.40;;;;;;5021599;28;20420;-84
2021/12/04 03:51:07;;;;;;;7.10;2.13;;;25.90;78.30;;;;;;4996520;28;20743;-83
2021/12/04 03:53:35;;;;;;;6.40;2.10;;;25.70;79.50;;;;;;4988741;28;20417;-86
2021/12/04 03:56:03;;;;;;;4.80;2.03;;;25.80;78.70;;;;;;5007367;28;20429;-83
2021/12/04 03:58:30;;;;;;;8.55;2.00;;;25.80;78.60;;;;;;5006777;28;20434;-84
2021/12/04 04:00:57;;;;;;;8.77;2.05;;;25.90;78.20;;;;;;5007685;28;20390;-86
2021/12/04 04:03:26;;;;;;;8.45;2.20;;;25.80;76.80;;;;;;5007316;28;20457;-85
2021/12/04 04:05:55;;;;;;;8.27;2.10;;;25.70;78.30;;;;;;5007096;28;20426;-86
2021/12/04 04:08:22;;;;;;;5.43;2.10;;;25.90;78.10;;;;;;5007091;28;20391;-84
2021/12/04 04:10:52;;;;;;;4.72;2.08;;;26.00;77.10;;;;;;5009202;28;20415;-88
2021/12/04 04:13:19;;;;;;;6.25;2.00;;;26.00;77.00;;;;;;5027098;28;20378;-86
2021/12/04 04:15:46;;;;;;;5.22;1.90;;;25.90;76.80;;;;;;5008615;28;20390;-84
2021/12/04 04:18:13;;;;;;;4.95;1.83;;;25.80;77.60;;;;;;5026785;28;20461;-85
2021/12/04 04:20:40;;;;;;;5.95;2.13;;;25.70;77.40;;;;;;5022538;28;20394;-84
2021/12/04 04:23:07;;;;;;;7.70;2.07;;;25.50;78.20;;;;;;5018428;28;20440;-87
2021/12/04 04:25:36;;;;;;;7.47;2.10;;;25.30;79.60;;;;;;5006636;28;20882;-84
2021/12/04 04:28:04;;;;;;;7.25;1.90;;;25.10;79.20;;;;;;5010168;28;20768;-86
2021/12/04 04:30:31;;;;;;;31.77;5.25;;;25.00;80.40;;;;;;5006658;28;20474;-85
2021/12/04 04:33:00;;;;;;;7.63;2.40;;;24.80;82.40;;;;;;5006873;28;20383;-86
2021/12/04 04:35:28;;;;;;;7.63;2.38;;;24.70;83.30;;;;;;5006921;28;20807;-87
2021/12/04 05:11:03;;;;;;;5.57;2.03;;;22.80;92.80;;;;;;4932704;28;20398;-83
2021/12/04 05:13:28;;;;;;;6.82;2.58;;;22.80;92.50;;;;;;5025000;28;20385;-83
2021/12/04 05:15:57;;;;;;;4.72;1.88;;;22.70;92.40;;;;;;5028322;28;20472;-83
2021/12/04 05:21:06;;;;;;;6.47;2.35;;;22.50;93.10;;;;;;5021048;28;20414;-82
2021/12/04 05:23:38;;;;;;;5.47;2.00;;;22.40;93.30;;;;;;5010153;28;20375;-84
2021/12/04 05:26:07;;;;;;;5.47;2.10;;;22.20;93.80;;;;;;5009804;28;20465;-82
2021/12/04 05:28:34;;;;;;;5.38;1.95;;;21.90;94.50;;;;;;5009816;28;20453;-82
2021/12/04 05:31:02;;;;;;;5.75;2.10;;;21.80;95.20;;;;;;5009937;28;20391;-82
2021/12/04 05:33:29;;;;;;;7.00;2.33;;;21.70;96.10;;;;;;5011756;28;20393;-84
2021/12/04 05:35:56;;;;;;;6.70;2.30;;;21.60;96.70;;;;;;5029671;28;20456;-85
2021/12/04 05:38:24;;;;;;;7.07;2.30;;;21.50;97.20;;;;;;5024861;28;20395;-83
2021/12/04 05:40:52;;;;;;;6.67;2.30;;;21.50;97.50;;;;;;5009855;28;20375;-84
2021/12/04 05:43:22;;;;;;;7.78;2.50;;;21.50;97.70;;;;;;5009857;28;20771;-82
2021/12/04 05:45:58;;;;;;;8.02;2.83;;;21.60;97.90;;;;;;5009433;28;20388;-81
2021/12/04 05:49:03;;;;;;;8.18;2.58;;;21.60;97.80;;;;;;5009356;28;20970;-81
2021/12/04 05:54:18;;;;;;;9.55;2.78;;;21.50;97.90;;;;;;5010697;28;20475;-86
2021/12/04 05:56:45;;;;;;;9.63;3.10;;;21.40;98.60;;;;;;5016984;28;20381;-82
2021/12/04 05:59:12;;;;;;;11.02;3.38;;;21.40;98.80;;;;;;5022125;28;20383;-82
2021/12/04 06:01:40;;;;;;;8.98;3.25;;;21.40;98.90;;;;;;5009598;28;20517;-84
2021/12/04 06:04:07;;;;;;;10.85;3.25;;;21.30;98.90;;;;;;5009264;28;20384;-90
2021/12/04 06:06:34;;;;;;;9.07;3.15;;;21.30;99.00;;;;;;5010095;28;20414;-91
2021/12/04 06:09:01;;;;;;;11.73;3.35;;;21.30;99.40;;;;;;5011835;28;20406;-89
2021/12/04 06:11:29;;;;;;;9.45;3.60;;;21.40;98.90;;;;;;4994691;28;20398;-89
2021/12/04 06:13:56;;;;;;;7.70;3.00;;;21.20;98.80;;;;;;5009535;28;20478;-83
2021/12/04 06:16:23;;;;;;;9.20;3.08;;;21.10;99.20;;;;;;5009892;28;20800;-86
2021/12/04 06:18:53;;;;;;;8.25;3.53;;;21.00;99.60;;;;;;5013145;28;20496;-83
2021/12/04 06:24:07;;;;;;;7.55;3.53;;;20.90;99.80;;;;;;5009791;28;20438;-84
2021/12/04 06:26:35;;;;;;;8.15;3.20;;;20.90;99.90;;;;;;5013560;28;20449;-84
2021/12/04 06:29:04;;;;;;;13.30;4.00;;;20.90;99.90;;;;;;5014684;28;20401;-83
2021/12/04 06:31:32;;;;;;;10.48;4.13;;;20.80;99.90;;;;;;5014410;28;20415;-84
2021/12/04 06:33:59;;;;;;;11.18;4.18;;;20.70;99.90;;;;;;5018149;28;20447;-85
2021/12/04 06:36:26;;;;;;;9.70;3.80;;;20.70;99.90;;;;;;4990849;28;20399;-83
2021/12/04 06:38:54;;;;;;;9.70;4.15;;;20.70;99.90;;;;;;5008553;28;20439;-82
2021/12/04 06:41:21;;;;;;;11.77;4.20;;;20.80;99.90;;;;;;5008576;28;20849;-84
2021/12/04 06:43:50;;;;;;;9.00;4.20;;;20.90;99.90;;;;;;5008524;28;20383;-88
2021/12/04 06:46:20;;;;;;;12.85;4.15;;;21.00;99.90;;;;;;5021670;28;20397;-83
2021/12/04 06:51:31;;;;;;;13.70;4.53;;;21.10;99.80;;;;;;5028590;28;20849;-88
2021/12/04 06:54:08;;;;;;;12.23;4.03;;;21.00;99.90;;;;;;5028155;28;20761;-86
2021/12/04 06:56:41;;;;;;;10.45;4.05;;;21.00;99.60;;;;;;5028101;28;20386;-86
2021/12/04 06:59:14;;;;;;;7.97;3.83;;;20.90;99.60;;;;;;5028069;28;20485;-87
2021/12/04 07:01:41;;;;;;;16.48;4.10;;;20.90;99.30;;;;;;5027764;28;20421;-85
2021/12/04 07:04:09;;;;;;;9.07;3.90;;;20.80;99.40;;;;;;5027938;28;20370;-85
2021/12/04 07:06:36;;;;;;;10.23;4.07;;;20.80;99.80;;;;;;5027916;28;20413;-86
2021/12/04 07:09:05;;;;;;;10.10;3.95;;;20.80;99.40;;;;;;5009971;28;21037;-86
2021/12/04 07:11:32;;;;;;;10.50;3.95;;;20.70;99.70;;;;;;5027635;28;20494;-87
2021/12/04 07:13:59;;;;;;;10.13;4.03;;;20.70;99.80;;;;;;5027740;28;20836;-86
2021/12/04 07:16:26;;;;;;;13.18;4.22;;;20.60;99.90;;;;;;5027805;28;20378;-85
2021/12/04 07:18:54;;;;;;;9.35;4.22;;;20.50;99.90;;;;;;5027901;28;20382;-85
2021/12/04 07:21:21;;;;;;;11.75;4.50;;;20.40;99.90;;;;;;5027698;28;20378;-86
2021/12/04 07:23:48;;;;;;;12.93;4.43;;;20.30;99.90;;;;;;5027762;28;20383;-86
2021/12/04 07:26:15;;;;;;;11.85;4.38;;;20.20;99.90;;;;;;5027523;28;20865;-85
2021/12/04 07:28:43;;;;;;;11.40;4.05;;;20.10;99.90;;;;;;5027459;28;20487;-86
2021/12/04 07:31:11;;;;;;;13.32;4.30;;;20.10;99.90;;;;;;5027477;28;20381;-84
2021/12/04 07:33:38;;;;;;;10.52;4.10;;;20.00;99.90;;;;;;5027462;28;20389;-85
2021/12/04 07:36:05;;;;;;;10.32;4.28;;;20.00;99.90;;;;;;5026685;28;20373;-87
2021/12/04 07:38:33;;;;;;;11.55;4.10;;;19.90;99.90;;;;;;5027210;28;20393;-85
2021/12/04 07:41:00;;;;;;;10.02;4.00;;;19.80;99.90;;;;;;5027328;28;20381;-86
2021/12/04 07:43:27;;;;;;;10.23;4.38;;;19.80;99.90;;;;;;5027230;28;20836;-85
2021/12/04 07:45:54;;;;;;;9.38;4.30;;;19.80;99.90;;;;;;5027156;28;20373;-87
2021/12/04 07:48:21;;;;;;;9.70;4.13;;;19.80;99.90;;;;;;5026726;28;20776;-85
2021/12/04 07:50:48;;;;;;;9.23;4.10;;;19.70;99.90;;;;;;5009534;28;20389;-85
2021/12/04 07:53:15;;;;;;;10.43;4.53;;;19.70;99.90;;;;;;5026978;28;20427;-85
2021/12/04 07:55:42;;;;;;;7.43;3.90;;;19.60;99.90;;;;;;5027477;28;20378;-85
2021/12/04 07:58:09;;;;;;;10.20;4.28;;;19.60;99.90;;;;;;5027858;28;20456;-86
2021/12/04 08:00:36;;;;;;;8.95;4.57;;;19.60;99.90;;;;;;5027383;28;20421;-85
2021/12/04 08:03:04;;;;;;;8.60;4.20;;;19.60;99.90;;;;;;5026966;28;20416;-87
2021/12/04 08:05:31;;;;;;;9.60;4.40;;;19.60;99.90;;;;;;5027056;28;20400;-86
2021/12/04 08:08:00;;;;;;;8.63;4.47;;;19.50;99.90;;;;;;5026709;28;20433;-84
2021/12/04 08:10:27;;;;;;;9.47;4.47;;;19.50;99.90;;;;;;5009071;28;20458;-85
2021/12/04 08:12:54;;;;;;;8.45;4.32;;;19.50;99.90;;;;;;5027018;28;20426;-85
2021/12/04 08:15:21;;;;;;;9.70;4.70;;;19.40;99.90;;;;;;5026934;28;20875;-87
2021/12/04 08:17:48;;;;;;;8.97;4.57;;;19.40;99.90;;;;;;5009042;28;20421;-85
2021/12/04 08:20:17;;;;;;;9.40;4.50;;;19.30;99.90;;;;;;5026664;28;20460;-85
2021/12/04 08:22:45;;;;;;;8.33;4.37;;;19.30;99.90;;;;;;5027326;28;20411;-85
2021/12/04 08:25:15;;;;;;;9.23;4.70;;;19.30;99.90;;;;;;5031887;28;20369;-88
2021/12/04 08:27:42;;;;;;;7.28;4.30;;;19.30;99.90;;;;;;5030745;28;20478;-86
2021/12/04 08:30:13;;;;;;;9.00;4.65;;;19.30;99.90;;;;;;5027068;28;20980;-86
2021/12/04 08:32:40;;;;;;;9.32;4.70;;;19.30;99.90;;;;;;5026791;28;20381;-86
2021/12/04 08:35:10;;;;;;;9.93;4.60;;;19.30;99.90;;;;;;5026657;28;20385;-86
2021/12/04 08:37:37;;;;;;;8.63;4.70;;;19.30;99.90;;;;;;5026513;28;20884;-87
2021/12/04 08:40:10;;;;;;;9.82;4.47;;;19.30;99.90;;;;;;5026789;28;20392;-88
2021/12/04 08:42:39;;;;;;;14.70;5.30;;;19.30;99.90;;;;;;5029530;28;20376;-86
2021/12/04 08:45:08;;;;;;;10.77;5.63;;;19.30;99.90;;;;;;5026691;28;20388;-85
2021/12/04 08:47:36;;;;;;;8.90;5.03;;;19.30;99.90;;;;;;5026824;28;20440;-85
2021/12/04 08:50:04;;;;;;;9.68;5.30;;;19.20;99.90;;;;;;5030604;28;20374;-86
2021/12/04 08:52:31;;;;;;;12.00;5.63;;;19.20;99.90;;;;;;5030470;28;20389;-87
2021/12/04 08:54:57;;;;;;;11.03;6.10;;;19.00;99.90;;;;;;5030590;28;20864;-86
2021/12/04 08:57:24;;;;;;;8.43;5.10;;;19.00;99.90;;;;;;5030492;28;20468;-85
2021/12/04 08:59:52;;;;;;;13.15;5.70;;;19.00;99.90;;;;;;5030418;28;20463;-86
2021/12/04 09:02:19;;;;;;;12.95;5.50;;;19.00;99.90;;;;;;5030378;28;20377;-87
2021/12/04 09:04:47;;;;;;;11.32;5.88;;;18.90;99.90;;;;;;5030277;28;20384;-85
2021/12/04 09:07:15;;;;;;;13.57;5.93;;;18.90;99.90;;;;;;5030446;28;20964;-86
2021/12/04 09:09:42;;;;;;;12.27;6.63;;;18.90;99.90;;;;;;5030127;28;20378;-86
2021/12/04 09:12:11;;;;;;;12.45;6.93;;;18.70;99.90;;;;;;5030347;28;20373;-86
2021/12/04 09:14:41;;;;;;;13.40;7.15;;;18.70;99.90;;;;;;5030204;28;20385;-86
2021/12/04 09:17:11;;;;;;;11.90;6.93;;;18.60;99.90;;;;;;5030053;28;20857;-85
2021/12/04 09:19:38;;;;;;;12.30;7.38;;;18.60;99.90;;;;;;5030019;28;20382;-86
2021/12/04 09:22:13;;;;;;;13.25;7.40;;;18.50;99.90;;;;;;5029967;28;20451;-86
2021/12/04 09:24:42;;;;;;;12.75;7.85;;;18.50;99.90;;;;;;5029684;28;20377;-87
2021/12/04 09:27:32;;;;;;;13.30;7.80;;;18.50;99.90;;;;;;5029851;28;20393;-87
2021/12/04 09:35:56;;;;;;;30.80;9.70;;;18.30;99.90;;;;;;5029736;28;20742;-85
2021/12/04 10:00:45;;;;;;;19.30;9.05;;;18.30;99.90;;;;;;5028778;28;20376;-86
2021/12/04 10:12:25;;;;;;;18.77;9.50;;;18.10;99.90;;;;;;5029180;28;20887;-85
2021/12/04 10:19:47;;;;;;;18.27;9.23;;;17.90;99.90;;;;;;5029249;28;20485;-85
2021/12/04 10:22:29;;;;;;;22.80;9.30;;;17.80;99.90;;;;;;5028986;28;20876;-85
2021/12/04 10:33:58;;;;;;;21.27;9.97;;;17.30;99.90;;;;;;5028959;28;20420;-85
2021/12/04 10:36:29;;;;;;;23.15;10.35;;;17.30;99.90;;;;;;5028536;28;20888;-84
2021/12/04 10:38:57;;;;;;;18.70;9.88;;;17.30;99.90;;;;;;5028600;28;20361;-85
2021/12/04 10:41:34;;;;;;;21.40;10.10;;;17.20;99.90;;;;;;5028580;28;20472;-84
2021/12/04 10:44:25;;;;;;;23.33;10.40;;;17.20;99.90;;;;;;5028241;28;20366;-84
2021/12/04 10:47:06;;;;;;;25.75;10.43;;;17.20;99.90;;;;;;5028348;28;20420;-84
2021/12/04 10:52:47;;;;;;;22.43;8.63;;;17.20;99.90;;;;;;5028260;28;20369;-84
2021/12/04 10:56:08;;;;;;;18.98;7.55;;;17.20;99.90;;;;;;5028214;28;20381;-84
2021/12/04 11:42:47;;;;;;;15.80;3.67;;;16.70;99.90;;;;;;5007356;28;20940;-81
2021/12/04 11:45:25;;;;;;;16.30;3.72;;;16.80;99.90;;;;;;5010928;28;20373;-81
2021/12/04 11:47:58;;;;;;;14.93;3.80;;;16.70;99.90;;;;;;5018032;28;20463;-82
2021/12/04 11:50:51;;;;;;;13.85;3.50;;;16.70;99.90;;;;;;4989738;28;20378;-84
2021/12/04 11:53:20;;;;;;;19.10;3.90;;;16.70;99.90;;;;;;4994044;28;21176;-83
2021/12/04 11:55:50;;;;;;;18.00;3.83;;;16.70;99.90;;;;;;4987668;28;20384;-83
2021/12/04 11:58:31;;;;;;;15.87;3.63;;;16.70;99.90;;;;;;4987557;28;20768;-83
2021/12/04 12:01:01;;;;;;;18.37;3.87;;;16.70;99.90;;;;;;4987357;28;20824;-82
2021/12/04 12:03:33;;;;;;;16.90;3.60;;;16.70;99.90;;;;;;4987500;28;20389;-82
2021/12/04 12:06:10;;;;;;;18.92;3.80;;;16.70;99.90;;;;;;4973342;28;20445;-81
2021/12/04 12:08:42;;;;;;;16.27;3.60;;;16.70;99.90;;;;;;4950663;28;20455;-82
2021/12/04 12:11:28;;;;;;;15.27;4.00;;;16.70;99.90;;;;;;4968141;28;20394;-80
2021/12/04 12:14:15;;;;;;;17.00;3.97;;;16.70;99.90;;;;;;4975407;28;20908;-84
2021/12/04 12:16:52;;;;;;;17.92;4.00;;;16.60;99.90;;;;;;4987325;28;20407;-83
2021/12/04 12:19:29;;;;;;;14.70;3.78;;;16.70;99.90;;;;;;4984237;28;20431;-83
2021/12/04 12:22:08;;;;;;;37.63;5.50;;;16.60;99.90;;;;;;4967858;28;20409;-82
2021/12/04 12:33:32;;;;;;;26.45;5.15;;;16.60;99.90;;;;;;4984894;28;20933;-84
2021/12/04 12:36:17;;;;;;;17.10;3.95;;;16.60;99.90;;;;;;4987294;28;20372;-86
2021/12/04 12:39:08;;;;;;;20.80;4.18;;;16.60;99.90;;;;;;4987196;28;20389;-85
2021/12/04 12:41:48;;;;;;;15.80;3.50;;;16.60;99.90;;;;;;4985955;28;20409;-86
2021/12/04 12:44:27;;;;;;;13.63;3.38;;;16.60;99.90;;;;;;4987417;28;20391;-86
2021/12/04 12:47:02;;;;;;;13.55;2.78;;;16.50;99.90;;;;;;4985831;28;20404;-87
2021/12/04 12:49:43;;;;;;;9.52;2.70;;;16.50;99.90;;;;;;5005657;28;20411;-87
2021/12/04 12:52:28;;;;;;;11.32;2.75;;;16.40;99.90;;;;;;5007462;28;20871;-84
2021/12/04 12:55:04;;;;;;;13.45;2.90;;;16.40;99.90;;;;;;4994465;28;20415;-86
2021/12/04 12:57:34;;;;;;;15.00;3.00;;;16.40;99.90;;;;;;5015516;28;20434;-86
2021/12/04 13:14:12;;;;;;;15.63;3.20;;;16.20;99.90;;;;;;5007125;28;20826;-86
2021/12/04 13:16:43;;;;;;;15.27;3.25;;;16.10;99.90;;;;;;5021574;28;20389;-84
2021/12/04 13:19:13;;;;;;;17.15;3.38;;;16.10;99.90;;;;;;5026475;28;20400;-86
2021/12/04 13:21:43;;;;;;;10.82;2.80;;;16.10;99.90;;;;;;5026490;28;20802;-86
2021/12/04 13:24:11;;;;;;;17.35;3.47;;;16.10;99.90;;;;;;5026593;28;20366;-85
2021/12/04 13:26:42;;;;;;;14.20;2.95;;;16.20;99.90;;;;;;5010404;28;20442;-84
2021/12/04 13:29:10;;;;;;;14.60;3.20;;;16.20;99.90;;;;;;5014483;28;20393;-85
2021/12/04 13:31:38;;;;;;;14.02;3.20;;;16.20;99.90;;;;;;5019021;28;20391;-85
2021/12/04 13:34:08;;;;;;;17.50;3.27;;;16.20;99.90;;;;;;5006636;28;20414;-84
2021/12/04 13:36:37;;;;;;;15.30;3.40;;;16.20;99.90;;;;;;5010062;28;20383;-84
2021/12/04 13:39:04;;;;;;;15.17;3.50;;;16.10;99.90;;;;;;5009941;28;20387;-85
2021/12/04 13:41:32;;;;;;;15.57;3.23;;;16.10;99.90;;;;;;5009639;28;20458;-85
2021/12/04 13:44:01;;;;;;;13.87;3.30;;;16.10;99.90;;;;;;5009943;28;20391;-85
2021/12/04 13:46:28;;;;;;;12.48;3.25;;;16.10;99.90;;;;;;5009414;28;20406;-85
2021/12/04 13:49:03;;;;;;;14.15;2.92;;;16.10;99.90;;;;;;5009889;28;20502;-85
2021/12/04 13:51:31;;;;;;;12.90;3.30;;;16.00;99.90;;;;;;5005341;28;20391;-85
2021/12/04 13:53:58;;;;;;;9.85;2.65;;;16.00;99.90;;;;;;5009783;28;20486;-85
2021/12/04 13:56:25;;;;;;;11.35;3.10;;;16.00;99.90;;;;;;4991900;28;20395;-85
2021/12/04 13:58:57;;;;;;;12.32;2.78;;;15.90;99.90;;;;;;5009694;28;20856;-85
2021/12/04 14:01:25;;;;;;;14.43;2.97;;;16.00;99.90;;;;;;5009812;28;20387;-85
2021/12/04 14:04:01;;;;;;;12.80;2.90;;;16.00;99.90;;;;;;5009048;28;20419;-85
2021/12/04 14:06:28;;;;;;;15.93;2.92;;;16.10;99.90;;;;;;5009479;28;20402;-86
2021/12/04 14:08:59;;;;;;;12.63;3.07;;;16.10;99.90;;;;;;5008419;28;20400;-85
2021/12/04 14:11:35;;;;;;;11.70;2.83;;;16.10;99.90;;;;;;5011050;28;20432;-85
2021/12/04 14:14:22;;;;;;;12.13;2.83;;;16.00;99.90;;;;;;5029138;28;20462;-86
2021/12/04 14:16:53;;;;;;;11.55;3.00;;;16.00;99.90;;;;;;5029142;28;20849;-85
2021/12/04 14:19:24;;;;;;;10.35;2.60;;;16.10;99.90;;;;;;5029109;28;20385;-86
2021/12/04 14:21:58;;;;;;;12.20;2.80;;;16.00;99.90;;;;;;5029076;28;20369;-85
2021/12/04 14:24:45;;;;;;;12.20;2.90;;;16.00;99.90;;;;;;5019426;28;20423;-85
2021/12/04 14:27:20;;;;;;;10.52;2.60;;;16.00;99.90;;;;;;5025716;28;20407;-85
2021/12/04 14:29:55;;;;;;;13.75;2.78;;;16.00;99.90;;;;;;5008928;28;20406;-85
2021/12/04 14:32:29;;;;;;;11.65;2.67;;;15.90;99.90;;;;;;5009162;28;20379;-85
2021/12/04 14:35:06;;;;;;;10.23;2.65;;;15.80;99.90;;;;;;5008907;28;20790;-83
2021/12/04 14:37:40;;;;;;;16.23;3.10;;;15.80;99.90;;;;;;5008901;28;20375;-83
2021/12/04 14:40:10;;;;;;;11.40;2.90;;;15.80;99.90;;;;;;5023963;28;20715;-82
2021/12/04 14:42:38;;;;;;;12.68;3.10;;;15.80;99.90;;;;;;5019838;28;20391;-85
2021/12/04 14:45:09;;;;;;;12.18;3.15;;;15.80;99.90;;;;;;5008800;28;20450;-86
2021/12/04 14:47:48;;;;;;;10.27;2.78;;;15.80;99.90;;;;;;4990360;28;20411;-85
2021/12/04 14:50:17;;;;;;;11.32;2.72;;;15.80;99.90;;;;;;5008722;28;20883;-84
2021/12/04 14:52:50;;;;;;;11.75;2.92;;;15.70;99.90;;;;;;5009424;28;20405;-84
2021/12/04 14:55:32;;;;;;;15.20;3.03;;;15.70;99.90;;;;;;5008081;28;20786;-84
2021/12/04 14:58:00;;;;;;;12.65;3.00;;;15.70;99.90;;;;;;5008506;28;20437;-84
2021/12/04 15:00:32;;;;;;;12.60;2.97;;;15.70;99.90;;;;;;5008585;28;20397;-84
2021/12/04 15:03:08;;;;;;;11.90;2.80;;;15.70;99.90;;;;;;5008263;28;20399;-84
2021/12/04 15:05:50;;;;;;;11.18;2.65;;;15.70;99.90;;;;;;4990771;28;20395;-84
2021/12/04 15:08:31;;;;;;;8.52;2.60;;;15.80;99.90;;;;;;5007784;28;20497;-84
2021/12/04 15:11:06;;;;;;;10.68;2.80;;;15.80;99.90;;;;;;5008301;28;20380;-84
2021/12/04 15:13:41;;;;;;;11.68;3.03;;;15.80;99.90;;;;;;5007884;28;20406;-84
2021/12/04 15:16:10;;;;;;;12.00;2.63;;;15.80;99.90;;;;;;5008288;28;20429;-85
2021/12/04 15:18:39;;;;;;;12.27;3.00;;;15.80;99.90;;;;;;5007858;28;20890;-84
2021/12/04 15:21:16;;;;;;;10.15;2.55;;;15.70;99.90;;;;;;5009069;28;20395;-85
2021/12/04 15:23:53;;;;;;;13.50;2.67;;;15.70;99.90;;;;;;5008168;28;20429;-85
2021/12/04 15:26:21;;;;;;;11.73;2.80;;;15.70;99.90;;;;;;5007066;28;20374;-84
2021/12/04 15:28:51;;;;;;;12.23;2.80;;;15.80;99.90;;;;;;5011602;28;20393;-84
2021/12/04 15:31:20;;;;;;;15.70;3.00;;;15.80;99.90;;;;;;5027698;28;20366;-84
2021/12/04 15:33:50;;;;;;;10.50;2.83;;;15.80;99.90;;;;;;5015937;28;20422;-84
2021/12/04 15:36:38;;;;;;;13.07;2.73;;;15.80;99.90;;;;;;5007848;28;20383;-84
2021/12/04 15:39:15;;;;;;;10.55;2.60;;;15.80;99.90;;;;;;5007819;28;20858;-84
2021/12/04 15:50:26;;;;;;;11.00;2.70;;;15.70;99.90;;;;;;5007803;28;20394;-84
2021/12/04 15:55:56;;;;;;;10.35;2.60;;;15.70;99.90;;;;;;5007580;28;20387;-84
2021/12/04 15:58:26;;;;;;;13.60;2.87;;;15.70;99.90;;;;;;5006603;28;20482;-84
2021/12/04 16:01:11;;;;;;;16.98;3.10;;;15.70;99.90;;;;;;5007172;28;20501;-84
2021/12/04 16:03:41;;;;;;;14.27;2.80;;;15.70;99.90;;;;;;5007367;28;20414;-84
2021/12/04 16:06:11;;;;;;;11.45;2.47;;;15.70;99.90;;;;;;5007794;28;20391;-84
2021/12/04 16:08:41;;;;;;;12.43;3.10;;;15.70;99.90;;;;;;5007135;28;20891;-84
2021/12/04 16:11:09;;;;;;;12.18;2.70;;;15.70;99.90;;;;;;5007238;28;21221;-83
2021/12/04 16:13:38;;;;;;;13.93;2.90;;;15.70;99.90;;;;;;5007138;28;20921;-84
2021/12/04 16:16:18;;;;;;;12.68;2.92;;;15.70;99.90;;;;;;5015465;28;20385;-84